Time;durP1;ratioP1;P1;durP2;ratioP2;P2;SDS_P1;SDS_P2;PMS_P1;PMS_P2;Temp;Humidity;BMP_temperature;BMP_pressure;BME280_temperature;BME280_humidity;BME280_pressure;Samples;Min_cycle;Max_cycle;Signal;HPM_P1;HPM_P2
2023/06/01 00:01:11;;;;;;;;;9.00;6.33;;;;;19.86;59.65;101663.94;5058470;28;46216;-80
2023/06/01 00:03:39;;;;;;;;;10.33;9.33;;;;;19.84;59.98;101661.34;5041779;28;45390;-79
2023/06/01 00:06:06;;;;;;;;;7.67;7.67;;;;;20.12;61.12;101719.31;5073195;28;45557;-80
2023/06/01 00:08:39;;;;;;;;;8.33;8.33;;;;;19.91;59.75;101670.69;5040443;28;45542;-80
2023/06/01 00:11:05;;;;;;;;;15.67;9.33;;;;;19.93;60.40;101692.88;5057422;28;45449;-80
2023/06/01 00:13:42;;;;;;;;;9.00;9.00;;;;;19.69;60.92;101635.63;5055985;28;45392;-80
2023/06/01 00:16:13;;;;;;;;;8.00;8.00;;;;;20.04;60.91;101714.47;5042372;28;45438;-80
2023/06/01 00:18:43;;;;;;;;;2.33;0.33;;;;;19.73;60.52;101677.38;5039463;28;45439;-80
2023/06/01 00:21:09;;;;;;;;;8.00;7.33;;;;;19.61;60.87;101643.34;5034990;28;45430;-80
2023/06/01 00:23:41;;;;;;;;;9.33;9.33;;;;;19.57;61.19;101633.78;5039293;28;45413;-80
2023/06/01 00:26:12;;;;;;;;;12.33;10.33;;;;;19.75;61.38;101686.16;5041598;28;45497;-79
2023/06/01 00:28:41;;;;;;;;;10.67;7.67;;;;;19.96;61.49;101706.09;5056016;28;45262;-79
2023/06/01 00:31:13;;;;;;;;;11.67;11.67;;;;;19.59;61.61;101669.44;5032838;28;48168;-79
2023/06/01 00:33:39;;;;;;;;;9.67;8.67;;;;;19.76;62.74;101694.09;5061269;28;45298;-80
2023/06/01 00:36:05;;;;;;;;;12.00;11.00;;;;;19.65;62.44;101675.22;5044242;28;45507;-80
2023/06/01 00:38:30;;;;;;;;;12.33;11.33;;;;;19.57;63.32;101687.47;5041919;28;45512;-79
2023/06/01 00:41:05;;;;;;;;;11.00;11.00;;;;;19.22;63.27;101636.25;5050639;28;46081;-79
2023/06/01 00:43:37;;;;;;;;;9.67;9.67;;;;;19.73;63.35;101720.31;5042329;28;45565;-79
2023/06/01 00:46:14;;;;;;;;;10.00;9.67;;;;;19.44;63.97;101667.81;5042262;28;45348;-80
2023/06/01 00:48:45;;;;;;;;;11.67;8.67;;;;;19.28;63.94;101649.22;5031880;28;45404;-79
2023/06/01 00:51:45;;;;;;;;;13.00;11.67;;;;;19.73;64.71;101723.84;5040049;28;47384;-79
2023/06/01 00:54:15;;;;;;;;;13.00;10.67;;;;;19.16;64.38;101653.66;5053609;28;45725;-80
2023/06/01 00:56:49;;;;;;;;;13.33;13.00;;;;;19.02;65.11;101631.41;5039283;28;45698;-80
2023/06/01 00:59:14;;;;;;;;;14.33;13.00;;;;;19.25;65.02;101660.19;5038885;28;45598;-79
2023/06/01 01:01:42;;;;;;;;;11.33;10.33;;;;;19.34;65.05;101681.00;5040001;28;47256;-80
2023/06/01 01:04:10;;;;;;;;;13.67;13.33;;;;;19.12;65.37;101652.13;5036232;28;45316;-80
2023/06/01 01:07:20;;;;;;;;;11.67;10.67;;;;;18.97;64.79;101638.94;5033582;28;45550;-80
2023/06/01 01:09:58;;;;;;;;;12.67;10.00;;;;;19.46;65.48;101735.66;5040649;28;45477;-79
2023/06/01 01:12:31;;;;;;;;;12.33;11.00;;;;;19.47;65.53;101738.22;5038747;28;45777;-81
2023/06/01 01:15:31;;;;;;;;;13.00;11.00;;;;;19.45;66.45;101733.94;5059197;28;45555;-81
2023/06/01 01:18:45;;;;;;;;;16.33;12.33;;;;;19.17;66.04;101689.38;5040724;28;45648;-80
2023/06/01 01:21:31;;;;;;;;;16.00;14.33;;;;;18.99;66.48;101688.78;5039005;28;45521;-80
2023/06/01 01:24:33;;;;;;;;;12.00;12.00;;;;;19.30;67.12;101734.97;5053999;28;46385;-80
2023/06/01 01:27:37;;;;;;;;;15.67;13.67;;;;;19.13;67.39;101722.72;5039885;28;45331;-80
2023/06/01 01:30:20;;;;;;;;;;;;;;;;;;;;;
2023/06/01 01:33:00;;;;;;;;;14.33;14.33;;;;;18.54;69.77;101640.97;5049797;28;72861;-80
2023/06/01 01:35:40;;;;;;;;;18.00;15.00;;;;;18.79;70.08;101688.41;5056294;28;45871;-80
2023/06/01 01:38:12;;;;;;;;;18.67;17.00;;;;;18.66;69.58;101689.25;5039576;28;45361;-80
2023/06/01 01:40:43;;;;;;;;;18.67;17.67;;;;;18.82;69.84;101731.97;5056887;28;45507;-80
2023/06/01 01:43:21;;;;;;;;;16.67;13.67;;;;;18.46;70.53;101670.91;5040434;28;45710;-80
2023/06/01 01:46:25;;;;;;;;;18.33;17.00;;;;;18.69;69.36;101734.59;5058576;28;45714;-80
2023/06/01 01:49:17;;;;;;;;;21.33;20.00;;;;;18.57;70.53;101702.41;5040146;28;45274;-80
2023/06/01 01:52:02;;;;;;;;;23.67;20.00;;;;;18.67;70.73;101730.31;5037197;28;45533;-80
2023/06/01 01:54:58;;;;;;;;;19.33;16.00;;;;;18.75;70.19;101760.13;5042311;28;45439;-80
2023/06/01 01:57:29;;;;;;;;;16.00;16.00;;;;;18.68;70.54;101762.34;5057740;28;45514;-80
2023/06/01 02:00:01;;;;;;;;;18.33;18.33;;;;;18.46;71.51;101705.75;5056809;28;45450;-80
2023/06/01 02:02:30;;;;;;;;;20.00;17.00;;;;;18.33;71.94;101720.91;5037559;28;45345;-81
2023/06/01 02:05:03;;;;;;;;;19.67;17.67;;;;;18.05;71.86;101657.56;5039996;28;45456;-81
2023/06/01 02:07:30;;;;;;;;;19.00;16.33;;;;;18.17;72.50;101678.19;5056596;28;45488;-80
2023/06/01 02:09:56;;;;;;;;;20.33;16.00;;;;;18.46;73.35;101731.66;5036810;28;45361;-80
2023/06/01 02:12:24;;;;;;;;;22.00;18.00;;;;;18.01;73.15;101682.81;5049617;28;45470;-80
2023/06/01 02:14:50;;;;;;;;;19.33;18.00;;;;;18.05;74.06;101670.97;5039482;28;45531;-81
2023/06/01 02:17:15;;;;;;;;;19.00;15.67;;;;;17.80;74.27;101622.63;5040512;28;48267;-80
2023/06/01 02:19:47;;;;;;;;;20.33;19.33;;;;;18.35;73.88;101727.03;5056278;28;45867;-80
2023/06/01 02:22:19;;;;;;;;;19.67;18.00;;;;;17.92;74.23;101653.09;5054226;28;45511;-80
2023/06/01 02:24:45;;;;;;;;;23.00;17.00;;;;;18.05;75.04;101676.31;5057896;28;45511;-80
2023/06/01 02:27:11;;;;;;;;;19.33;18.00;;;;;17.67;74.79;101610.97;5035124;28;46709;-80
2023/06/01 02:29:36;;;;;;;;;19.67;18.00;;;;;18.00;75.82;101686.44;5058302;28;45562;-79
2023/06/01 02:32:01;;;;;;;;;20.67;17.33;;;;;18.15;75.47;101703.34;5060528;28;45751;-78
2023/06/01 02:34:30;;;;;;;;;18.33;15.67;;;;;18.18;76.50;101716.53;5060494;28;45214;-79
2023/06/01 02:36:58;;;;;;;;;23.33;19.33;;;;;17.68;76.02;101651.03;5040193;28;47090;-79
2023/06/01 02:39:24;;;;;;;;;18.00;18.00;;;;;18.09;76.57;101744.78;5040811;28;47170;-79
2023/06/01 02:41:49;;;;;;;;;23.33;19.00;;;;;17.97;77.03;101701.84;5057643;28;45498;-79
2023/06/01 02:44:15;;;;;;;;;23.67;20.00;;;;;17.56;77.88;101654.47;5041120;28;45341;-80
2023/06/01 02:46:40;;;;;;;;;23.33;20.00;;;;;17.55;77.41;101654.53;5058595;28;46030;-80
2023/06/01 02:49:11;;;;;;;;;24.00;22.67;;;;;17.81;78.07;101693.06;5053861;28;45566;-80
2023/06/01 02:51:40;;;;;;;;;21.67;19.00;;;;;17.35;77.75;101645.06;5055642;28;45701;-80
2023/06/01 02:54:13;;;;;;;;;23.33;22.00;;;;;17.55;78.33;101662.56;5057744;28;45458;-80
2023/06/01 02:56:38;;;;;;;;;23.33;20.67;;;;;17.90;79.23;101727.28;5056108;28;45485;-79
2023/06/01 02:59:04;;;;;;;;;20.67;18.00;;;;;17.57;79.90;101687.44;5056700;28;45391;-79
2023/06/01 03:01:40;;;;;;;;;23.33;21.00;;;;;17.31;79.53;101645.38;5038709;28;45538;-79
2023/06/01 03:04:07;;;;;;;;;28.00;25.67;;;;;17.48;79.58;101694.19;5036163;28;45585;-80
2023/06/01 03:06:41;;;;;;;;;30.00;24.00;;;;;17.47;79.85;101676.41;5038254;28;45673;-80
2023/06/01 03:09:13;;;;;;;;;25.00;22.67;;;;;17.13;78.80;101625.97;5038233;28;45416;-79
2023/06/01 03:11:53;;;;;;;;;;;;;;;;;;;;;
2023/06/01 03:14:18;;;;;;;;;25.33;22.33;;;;;17.15;80.29;101659.66;5055909;28;72527;-79
2023/06/01 03:16:44;;;;;;;;;30.33;24.33;;;;;17.31;81.05;101670.28;5056888;28;45524;-79
2023/06/01 03:19:17;;;;;;;;;21.67;20.00;;;;;17.04;80.68;101647.91;5056684;28;45416;-79
2023/06/01 03:21:43;;;;;;;;;22.50;21.50;;;;;16.95;81.17;101619.91;5031346;28;45405;-79
2023/06/01 03:24:08;;;;;;;;;19.67;18.33;;;;;16.92;80.89;101630.78;5053467;28;45657;-79
2023/06/01 03:26:34;;;;;;;;;26.67;24.00;;;;;17.05;81.13;101655.81;5057048;28;45599;-79
2023/06/01 03:29:11;;;;;;;;;27.00;24.67;;;;;17.14;80.91;101673.16;5056153;28;45410;-79
2023/06/01 03:31:55;;;;;;;;;22.33;20.33;;;;;17.18;82.09;101664.81;5037407;28;45531;-79
2023/06/01 03:34:21;;;;;;;;;29.00;22.33;;;;;17.41;81.75;101719.56;5034009;28;45682;-79
2023/06/01 03:36:47;;;;;;;;;29.67;24.00;;;;;17.14;82.38;101676.69;5054921;28;45616;-80
2023/06/01 03:39:16;;;;;;;;;25.33;23.33;;;;;16.88;81.87;101633.75;5056557;28;45403;-79
2023/06/01 03:41:50;;;;;;;;;26.67;25.00;;;;;17.27;81.44;101705.34;5037725;28;45333;-80
2023/06/01 03:44:16;;;;;;;;;25.67;24.00;;;;;17.41;82.47;101742.78;5038243;28;45627;-79
2023/06/01 03:46:41;;;;;;;;;27.33;24.67;;;;;17.45;83.06;101747.00;5056711;28;45456;-79
2023/06/01 03:49:06;;;;;;;;;27.67;26.33;;;;;16.73;83.51;101621.31;5058961;28;45541;-79
2023/06/01 03:51:36;;;;;;;;;23.33;20.67;;;;;16.82;82.89;101648.31;5040105;28;45488;-78
2023/06/01 03:54:04;;;;;;;;;28.25;23.25;;;;;17.29;83.44;101730.16;5057907;28;45299;-78
2023/06/01 03:56:30;;;;;;;;;29.00;26.50;;;;;17.09;83.19;101709.97;5059436;28;45378;-78
2023/06/01 03:58:55;;;;;;;;;28.00;23.00;;;;;17.02;84.42;101693.44;5039736;28;45534;-78
2023/06/01 04:01:22;;;;;;;;;27.33;24.00;;;;;16.96;83.58;101684.91;5049495;28;45522;-78
2023/06/01 04:03:53;;;;;;;;;33.00;27.25;;;;;17.27;83.71;101748.97;5058766;28;45522;-78
2023/06/01 04:06:34;;;;;;;;;29.00;27.00;;;;;16.89;84.11;101684.44;5059768;28;45562;-78
2023/06/01 04:09:01;;;;;;;;;30.00;25.25;;;;;16.76;86.06;101656.72;5059148;28;45428;-78
2023/06/01 04:11:31;;;;;;;;;26.33;24.67;;;;;17.05;84.92;101722.66;5041723;28;45499;-78
2023/06/01 04:13:57;;;;;;;;;27.00;25.00;;;;;16.99;84.07;101712.31;5042372;28;45358;-78
2023/06/01 04:16:22;;;;;;;;;29.00;28.33;;;;;16.83;84.15;101679.44;5062722;28;45322;-78
2023/06/01 04:18:47;;;;;;;;;30.25;22.75;;;;;17.20;85.03;101752.97;5044223;28;45421;-78
2023/06/01 04:21:13;;;;;;;;;31.00;30.50;;;;;16.79;83.94;101691.25;5060856;28;45456;-78
2023/06/01 04:23:42;;;;;;;;;30.25;27.75;;;;;16.61;85.61;101670.97;5045558;28;45523;-78
2023/06/01 04:26:07;;;;;;;;;23.50;22.00;;;;;16.77;85.06;101679.81;5060629;28;45695;-78
2023/06/01 04:28:33;;;;;;;;;25.75;23.00;;;;;16.63;85.47;101663.72;5039689;28;45421;-78
2023/06/01 04:31:07;;;;;;;;;34.00;29.50;;;;;16.88;85.39;101717.47;5058344;28;44870;-79
2023/06/01 04:33:44;;;;;;;;;30.25;28.50;;;;;16.59;84.90;101654.16;5057998;28;45433;-81
2023/06/01 04:39:45;;;;;;;;;;;;;;;;;;;;;
2023/06/01 04:42:30;;;;;;;;;29.50;27.25;;;;;16.61;86.18;101674.53;5048646;28;68435;-82
2023/06/01 04:44:55;;;;;;;;;32.75;28.75;;;;;16.99;85.87;101725.69;5033179;28;45600;-80
2023/06/01 04:47:39;;;;;;;;;30.25;27.75;;;;;17.27;85.76;101777.53;5056089;28;45482;-85
2023/06/01 04:50:28;;;;;;;;;;;;;;;;;;;;;
2023/06/01 04:53:12;;;;;;;;;32.75;28.75;;;;;16.95;85.77;101712.63;5053440;28;68854;-81
2023/06/01 04:55:39;;;;;;;;;28.50;28.50;;;;;17.12;87.42;101733.84;5037624;28;45525;-79
2023/06/01 04:58:18;;;;;;;;;41.25;32.00;;;;;17.02;86.38;101708.59;5038590;28;46854;-83
2023/06/01 05:01:06;;;;;;;;;34.00;28.75;;;;;16.87;85.70;101697.03;5035854;28;45364;-83
2023/06/01 05:04:00;;;;;;;;;28.00;28.00;;;;;17.21;85.99;101757.38;5038324;28;45540;-80
2023/06/01 05:06:46;;;;;;;;;36.00;32.25;;;;;16.95;86.21;101685.91;5058756;28;45467;-84
2023/06/01 05:09:17;;;;;;;;;30.50;28.00;;;;;17.05;84.82;101713.75;5039906;28;45983;-80
2023/06/01 05:11:42;;;;;;;;;37.00;31.00;;;;;17.51;85.16;101797.44;5054770;28;45845;-79
2023/06/01 05:14:29;;;;;;;;;33.25;28.75;;;;;17.12;85.00;101713.31;5039702;28;45719;-82
2023/06/01 05:17:21;;;;;;;;;33.00;29.75;;;;;17.11;83.51;101705.41;5040256;28;45543;-78
2023/06/01 05:19:47;;;;;;;;;34.33;28.67;;;;;17.32;84.01;101735.31;5038200;28;47047;-77
2023/06/01 05:22:25;;;;;;;;;33.75;31.00;;;;;16.95;84.50;101676.03;5038133;28;45471;-77
2023/06/01 05:25:11;;;;;;;;;33.50;29.75;;;;;17.66;84.80;101807.25;5038182;28;45452;-79
2023/06/01 05:27:55;;;;;;;;;35.50;30.25;;;;;17.32;84.05;101725.50;5036621;28;45695;-79
2023/06/01 05:31:18;;;;;;;;;31.75;28.25;;;;;17.20;83.46;101707.53;5038522;28;46482;-85
2023/06/01 05:34:16;;;;;;;;;41.75;29.50;;;;;17.32;82.39;101703.22;5037403;28;45479;-85
2023/06/01 05:37:08;;;;;;;;;;;;;;;;;;;;;
2023/06/01 05:43:35;;;;;;;;;38.25;32.00;;;;;18.09;83.89;101809.03;4952899;28;46338;-86
2023/06/01 05:46:57;;;;;;;;;33.25;30.00;;;;;17.56;80.75;101699.09;4940450;28;45397;-85
2023/06/01 05:49:52;;;;;;;;;;;;;;;;;;;;;
2023/06/01 05:59:42;;;;;;;;;33.50;30.75;;;;;18.34;81.49;101808.34;4928104;28;45637;-86
2023/06/01 06:02:42;;;;;;;;;36.25;31.25;;;;;17.87;78.82;101712.25;4963159;28;45557;-85
2023/06/01 06:06:02;;;;;;;;;32.00;28.75;;;;;18.26;78.60;101764.25;4960856;28;45614;-86
2023/06/01 06:25:17;;;;;;;;;;;;;;;;;;;;;
2023/06/01 06:31:50;;;;;;;;;;;;;;;;;;;;;
2023/06/01 06:34:35;;;;;;;;;38.25;33.00;;;;;18.63;75.70;101736.81;5003838;28;75075;-81
2023/06/01 06:37:39;;;;;;;;;33.50;29.75;;;;;18.96;76.06;101769.44;5005276;28;45609;-82
2023/06/01 06:40:37;;;;;;;;;26.25;26.25;;;;;18.72;75.33;101729.03;5005872;28;45348;-81
2023/06/01 06:46:45;;;;;;;;;;;;;;;;;;;;;
2023/06/01 06:49:43;;;;;;;;;;;;;;;;;;;;;
2023/06/01 06:52:36;;;;;;;;;39.00;32.50;;;;;18.92;72.97;101714.28;5050970;28;68801;-80
2023/06/01 06:55:12;;;;;;;;;36.50;32.75;;;;;19.63;73.10;101830.13;5036482;28;45317;-81
2023/06/01 06:57:49;;;;;;;;;36.00;31.25;;;;;19.27;72.01;101755.66;5056274;28;45549;-80
2023/06/01 07:00:18;;;;;;;;;38.50;32.25;;;;;19.34;72.06;101736.50;5038292;28;45392;-81
2023/06/01 07:02:53;;;;;;;;;33.25;30.50;;;;;19.88;73.35;101812.34;5036108;28;45396;-81
2023/06/01 07:05:19;;;;;;;;;33.75;29.50;;;;;19.76;71.62;101784.53;5036605;28;45382;-82
2023/06/01 07:07:52;;;;;;;;;31.00;29.33;;;;;19.42;71.58;101716.25;5038791;28;46988;-81
2023/06/01 07:13:30;;;;;;;;;39.00;28.00;;;;;19.84;69.52;101749.06;5045526;28;45396;-81
2023/06/01 07:16:11;;;;;;;;;28.67;27.33;;;;;19.79;70.34;101706.47;5038009;28;45429;-80
2023/06/01 07:19:07;;;;;;;;;34.00;32.25;;;;;19.97;67.92;101717.69;5029076;28;47119;-81
2023/06/01 07:21:33;;;;;;;;;34.00;29.75;;;;;20.48;68.26;101799.09;5024506;28;45354;-81
2023/06/01 07:24:00;;;;;;;;;35.67;29.33;;;;;19.97;66.96;101699.75;5035319;28;45490;-81
2023/06/01 07:26:34;;;;;;;;;31.67;30.00;;;;;20.45;67.39;101777.81;5039199;28;45511;-82
2023/06/01 07:29:09;;;;;;;;;34.33;29.67;;;;;20.62;67.15;101780.09;5028353;28;46590;-82
2023/06/01 07:31:43;;;;;;;;;29.00;28.00;;;;;20.92;66.38;101818.19;5040324;28;45473;-82
2023/06/01 07:34:14;;;;;;;;;32.67;29.33;;;;;20.83;65.65;101783.91;5057889;28;45491;-82
2023/06/01 07:36:46;;;;;;;;;28.67;27.67;;;;;20.71;65.45;101760.63;5040398;28;45318;-82
2023/06/01 07:39:19;;;;;;;;;34.33;29.00;;;;;20.77;64.77;101763.72;5036888;28;45837;-81
2023/06/01 07:41:57;;;;;;;;;32.33;28.33;;;;;20.88;64.84;101764.72;5051118;28;45330;-81
2023/06/01 07:44:38;;;;;;;;;29.67;28.33;;;;;20.78;64.20;101751.97;5027299;28;45417;-81
2023/06/01 07:47:10;;;;;;;;;34.67;28.67;;;;;20.71;64.12;101744.50;5043649;28;45423;-81
2023/06/01 07:49:36;;;;;;;;;28.00;26.67;;;;;21.08;64.76;101783.78;5036083;28;45401;-81
2023/06/01 07:52:07;;;;;;;;;28.00;23.33;;;;;21.14;63.84;101763.66;5063490;28;45268;-82
2023/06/01 07:54:36;;;;;;;;;26.67;26.33;;;;;20.94;64.18;101724.78;5043986;28;45381;-81
2023/06/01 07:57:04;;;;;;;;;27.00;25.33;;;;;21.16;64.29;101724.06;5043087;28;45535;-81
2023/06/01 07:59:51;;;;;;;;;27.33;24.00;;;;;21.14;62.10;101734.91;5040928;28;45906;-81
2023/06/01 08:02:27;;;;;;;;;30.67;26.00;;;;;21.23;61.37;101707.31;5028343;28;45475;-81
2023/06/01 08:04:59;;;;;;;;;28.67;25.33;;;;;21.60;62.50;101777.13;5036662;28;45466;-82
2023/06/01 08:07:49;;;;;;;;;28.67;24.33;;;;;21.47;62.31;101733.28;5036445;28;45514;-81
2023/06/01 08:10:30;;;;;;;;;30.00;28.67;;;;;21.63;61.48;101741.88;5053088;28;46148;-80
2023/06/01 08:13:18;;;;;;;;;29.33;26.67;;;;;21.59;62.29;101726.97;5041782;28;45472;-80
2023/06/01 08:16:10;;;;;;;;;29.67;28.33;;;;;21.79;60.76;101737.84;5041732;28;45372;-81
2023/06/01 08:18:59;;;;;;;;;32.67;27.33;;;;;21.91;61.57;101736.06;5039312;28;45365;-80
2023/06/01 08:21:55;;;;;;;;;26.00;23.33;;;;;22.56;60.16;101825.09;5032905;28;48134;-81
2023/06/01 08:28:03;;;;;;;;;27.00;25.00;;;;;22.76;59.86;101818.09;5046379;28;45539;-81
2023/06/01 08:30:43;;;;;;;;;27.00;24.00;;;;;22.54;59.01;101773.13;5034714;28;45719;-80
2023/06/01 08:36:28;;;;;;;;;24.00;24.00;;;;;22.67;58.63;101771.19;5043978;28;45365;-80
2023/06/01 08:39:23;;;;;;;;;29.33;26.00;;;;;22.97;59.36;101794.72;5038598;28;45336;-81
2023/06/01 08:42:12;;;;;;;;;26.67;23.33;;;;;23.13;57.54;101799.72;5025137;28;45388;-80
2023/06/01 08:45:09;;;;;;;;;;;;;;;;;;;;;
2023/06/01 08:47:45;;;;;;;;;24.67;23.33;;;;;23.53;57.85;101826.91;5059244;28;70874;-81
2023/06/01 08:50:25;;;;;;;;;25.00;23.33;;;;;23.24;57.71;101757.31;5047612;28;45435;-80
2023/06/01 08:52:57;;;;;;;;;23.33;22.00;;;;;23.29;56.64;101729.94;5041462;28;45319;-81
2023/06/01 08:55:55;;;;;;;;;23.67;21.33;;;;;23.47;55.84;101735.63;5041730;28;46487;-81
2023/06/01 08:58:46;;;;;;;;;21.67;20.67;;;;;23.80;56.21;101768.66;5040189;28;45335;-81
2023/06/01 09:01:42;;;;;;;;;21.00;21.00;;;;;23.83;54.99;101740.53;5041700;28;45473;-81
2023/06/01 09:04:20;;;;;;;;;25.67;22.00;;;;;23.88;55.07;101742.84;5041660;28;45486;-83
2023/06/01 09:06:57;;;;;;;;;18.00;18.00;;;;;24.07;54.60;101748.31;5059540;28;46923;-81
2023/06/01 09:09:45;;;;;;;;;26.67;24.67;;;;;24.42;54.63;101792.00;5041172;28;45639;-82
2023/06/01 09:12:32;;;;;;;;;22.33;22.00;;;;;24.51;55.09;101791.19;5027392;28;45539;-82
2023/06/01 09:15:32;;;;;;;;;24.00;24.00;;;;;24.27;54.42;101726.66;5028793;28;45483;-81
2023/06/01 09:18:19;;;;;;;;;22.00;20.00;;;;;24.72;54.66;101802.78;5019958;28;46377;-82
2023/06/01 09:20:53;;;;;;;;;21.33;18.67;;;;;24.76;54.55;101789.84;5041609;28;45526;-81
2023/06/01 09:23:44;;;;;;;;;24.67;23.33;;;;;24.97;53.16;101801.41;5038853;28;45398;-81
2023/06/01 09:26:16;;;;;;;;;25.67;23.00;;;;;24.93;53.48;101780.19;5035499;28;45463;-81
2023/06/01 09:29:01;;;;;;;;;21.33;18.00;;;;;24.76;54.43;101731.16;5044708;28;46284;-81
2023/06/01 09:31:50;;;;;;;;;18.00;18.00;;;;;25.08;53.19;101757.97;5044785;28;45458;-81
2023/06/01 09:34:35;;;;;;;;;25.00;23.67;;;;;25.33;52.69;101768.22;5044448;28;45313;-81
2023/06/01 09:37:10;;;;;;;;;20.67;19.67;;;;;25.01;51.53;101685.59;5036880;28;45416;-81
2023/06/01 09:43:36;;;;;;;;;;;;;;;;;;;;;
2023/06/01 09:46:06;;;;;;;;;22.00;19.33;;;;;25.74;51.46;101744.50;5058569;28;67669;-81
2023/06/01 09:48:45;;;;;;;;;18.33;16.33;;;;;26.04;51.20;101768.66;5046567;28;45447;-82
2023/06/01 09:51:48;;;;;;;;;24.00;22.67;;;;;25.80;50.98;101727.66;5037327;28;45537;-82
2023/06/01 09:55:10;;;;;;;;;;;;;;;;;;;;;
2023/06/01 10:00:54;;;;;;;;;;;;;;;;;;;;;
2023/06/01 10:06:33;;;;;;;;;;;;;;;;;;;;;
2023/06/01 10:09:19;;;;;;;;;19.00;17.33;;;;;26.43;50.45;101725.94;5046954;28;69321;-82
2023/06/01 10:12:22;;;;;;;;;19.33;19.00;;;;;26.22;49.21;101692.78;5026036;28;45600;-82
2023/06/01 10:18:19;;;;;;;;;17.33;16.00;;;;;26.54;49.54;101684.19;5041088;28;45346;-82
2023/06/01 10:20:59;;;;;;;;;22.33;20.67;;;;;26.57;48.09;101670.31;5033539;28;45372;-81
2023/06/01 10:24:30;;;;;;;;;18.00;18.00;;;;;26.94;46.94;101725.31;5036752;28;45483;-82
2023/06/01 10:27:31;;;;;;;;;22.00;20.67;;;;;27.21;48.37;101744.22;5039592;28;45452;-83
2023/06/01 10:30:18;;;;;;;;;15.33;15.33;;;;;27.32;48.83;101745.84;5049315;28;45505;-82
2023/06/01 10:32:59;;;;;;;;;17.67;17.67;;;;;27.42;48.65;101736.56;5027708;28;45434;-82
2023/06/01 10:35:47;;;;;;;;;18.00;18.00;;;;;27.53;47.50;101740.06;5051126;28;45498;-82
2023/06/01 10:38:17;;;;;;;;;21.67;16.67;;;;;27.55;44.53;101741.63;5053614;28;46307;-83
2023/06/01 10:40:53;;;;;;;;;19.33;18.67;;;;;27.11;47.29;101678.28;5027764;28;45329;-81
2023/06/01 10:44:06;;;;;;;;;19.33;16.33;;;;;27.65;47.51;101728.75;5026552;28;45454;-82
2023/06/01 10:46:51;;;;;;;;;16.33;14.33;;;;;27.65;47.03;101717.88;5025270;28;45265;-83
2023/06/01 10:49:45;;;;;;;;;14.00;12.33;;;;;27.44;45.85;101652.22;5040353;28;47080;-83
2023/06/01 10:53:03;;;;;;;;;19.00;17.67;;;;;27.48;45.62;101660.91;5025368;28;45453;-83
2023/06/01 10:56:03;;;;;;;;;21.00;17.67;;;;;27.45;44.30;101642.19;5040490;28;45410;-82
2023/06/01 10:58:56;;;;;;;;;16.00;15.67;;;;;27.65;45.77;101692.59;5045309;28;45404;-82
2023/06/01 11:01:27;;;;;;;;;18.00;15.33;;;;;28.04;44.76;101742.78;5033157;28;45925;-82
2023/06/01 11:04:33;;;;;;;;;14.33;14.33;;;;;27.76;43.95;101660.53;5042728;28;45563;-82
2023/06/01 11:07:39;;;;;;;;;15.00;15.00;;;;;28.42;43.69;101720.50;5050467;28;45479;-82
2023/06/01 11:11:20;;;;;;;;;17.00;15.33;;;;;28.51;45.70;101707.75;5042522;28;45590;-81
2023/06/01 11:13:42;;;;;;;;;16.67;14.33;;;;;28.33;42.28;101639.84;5041452;28;45959;-82
2023/06/01 11:16:14;;;;;;;;;15.00;14.00;;;;;28.81;43.78;101698.13;5042572;28;45471;-83
2023/06/01 11:19:25;;;;;;;;;12.33;10.67;;;;;28.88;43.13;101696.44;5041140;28;45511;-82
2023/06/01 11:22:52;;;;;;;;;12.67;12.67;;;;;28.63;41.12;101634.78;5039377;28;45421;-82
2023/06/01 11:26:08;;;;;;;;;15.33;14.33;;;;;28.95;42.10;101665.63;5044448;28;45562;-82
2023/06/01 11:29:17;;;;;;;;;;;;;;;;;;;;;
2023/06/01 11:32:03;;;;;;;;;16.33;15.00;;;;;28.77;41.26;101634.13;5041785;28;68689;-82
2023/06/01 11:34:43;;;;;;;;;17.00;14.67;;;;;29.16;42.25;101673.25;5032195;28;45420;-83
2023/06/01 11:37:37;;;;;;;;;20.00;16.33;;;;;29.50;41.88;101713.13;5023126;28;47794;-82
2023/06/01 11:40:42;;;;;;;;;14.00;12.33;;;;;29.13;40.88;101621.84;5039090;28;45262;-82
2023/06/01 11:43:28;;;;;;;;;15.00;13.00;;;;;29.31;41.19;101679.75;5026201;28;45785;-83
2023/06/01 11:52:29;;;;;;;;;13.33;13.33;;;;;29.81;41.63;101698.53;5046050;28;45425;-82
2023/06/01 11:55:19;;;;;;;;;12.67;11.33;;;;;29.82;39.75;101692.06;5043204;28;45310;-84
2023/06/01 11:58:02;;;;;;;;;11.00;10.33;;;;;29.33;40.14;101606.00;5039702;28;45656;-82
2023/06/01 12:00:39;;;;;;;;;13.67;12.67;;;;;29.46;39.74;101601.69;5038598;28;45967;-83
2023/06/01 12:03:29;;;;;;;;;11.33;11.00;;;;;29.78;40.69;101633.44;5039587;28;45524;-84
2023/06/01 12:05:56;;;;;;;;;10.33;10.33;;;;;30.00;39.34;101612.75;5038765;28;45657;-82
2023/06/01 12:08:27;;;;;;;;;11.67;11.67;;;;;30.10;39.04;101643.38;5028144;28;45267;-84
2023/06/01 12:11:07;;;;;;;;;17.33;12.00;;;;;30.01;38.98;101603.50;5038838;28;45904;-82
2023/06/01 12:14:05;;;;;;;;;9.00;9.00;;;;;30.51;39.18;101675.91;5033212;28;45381;-83
2023/06/01 12:17:29;;;;;;;;;12.67;11.00;;;;;30.58;40.11;101658.63;5025154;28;45576;-84
2023/06/01 12:20:06;;;;;;;;;14.33;11.33;;;;;30.54;38.78;101624.53;4958222;28;45613;-82
2023/06/01 12:22:54;;;;;;;;;;;;;;;;;;;;;
2023/06/01 12:26:05;;;;;;;;;11.00;10.00;;;;;30.68;38.71;101617.41;4976345;28;70766;-83
2023/06/01 12:29:06;;;;;;;;;9.00;9.00;;;;;30.94;37.38;101628.78;4993999;28;45653;-83
2023/06/01 12:31:52;;;;;;;;;7.00;7.00;;;;;31.37;37.85;101662.75;5018272;28;45555;-83
2023/06/01 12:34:20;;;;;;;;;9.33;7.33;;;;;31.03;36.33;101591.31;4993827;28;45915;-83
2023/06/01 12:37:06;;;;;;;;;12.67;10.33;;;;;30.93;35.83;101602.50;5011536;28;45421;-84
2023/06/01 12:39:56;;;;;;;;;8.67;8.33;;;;;31.18;36.42;101611.34;5000405;28;45419;-83
2023/06/01 12:42:45;;;;;;;;;10.00;10.00;;;;;31.34;36.18;101600.22;5016574;28;45619;-83
2023/06/01 12:45:23;;;;;;;;;12.33;11.67;;;;;31.28;37.62;101552.59;5000681;28;45589;-84
2023/06/01 12:48:25;;;;;;;;;13.00;12.00;;;;;31.46;36.69;101572.22;5017160;28;45345;-83
2023/06/01 12:51:03;;;;;;;;;11.33;10.00;;;;;31.72;35.37;101592.78;5008436;28;45420;-84
2023/06/01 12:53:42;;;;;;;;;10.67;10.67;;;;;31.85;37.61;101591.06;4997049;28;45271;-84
2023/06/01 12:56:28;;;;;;;;;;;;;;;;;;;;;
2023/06/01 12:58:59;;;;;;;;;9.33;9.00;;;;;32.34;34.57;101602.19;5057640;28;71623;-84
2023/06/01 13:01:28;;;;;;;;;6.67;6.67;;;;;32.21;35.94;101579.28;5040897;28;45313;-84
2023/06/01 13:04:03;;;;;;;;;10.00;9.00;;;;;32.71;35.21;101655.91;5030677;28;45590;-85
2023/06/01 13:09:45;;;;;;;;;10.00;9.00;;;;;32.49;33.32;101610.34;5036586;28;45373;-84
2023/06/01 13:12:19;;;;;;;;;11.33;6.00;;;;;32.64;33.75;101580.16;5064177;28;45410;-83
2023/06/01 13:15:11;;;;;;;;;13.00;12.33;;;;;33.06;35.13;101645.00;5040443;28;45591;-84
2023/06/01 13:17:47;;;;;;;;;10.33;10.33;;;;;32.71;34.06;101568.22;5040995;28;45779;-82
2023/06/01 13:20:26;;;;;;;;;9.67;8.67;;;;;32.92;35.12;101587.34;5054697;28;45289;-84
2023/06/01 13:26:14;;;;;;;;;10.00;8.33;;;;;33.01;33.23;101547.78;5059827;28;45471;-84
2023/06/01 13:28:44;;;;;;;;;12.33;11.33;;;;;33.29;33.42;101582.56;5033854;28;46353;-85
2023/06/01 13:31:30;;;;;;;;;11.67;10.33;;;;;33.16;33.15;101575.09;5041892;28;45326;-85
2023/06/01 13:37:18;;;;;;;;;12.00;9.00;;;;;33.01;34.18;101556.00;5035802;28;45345;-82
2023/06/01 13:39:49;;;;;;;;;12.33;11.67;;;;;33.02;34.45;101570.53;5039941;28;45625;-84
2023/06/01 13:43:01;;;;;;;;;10.67;10.67;;;;;33.44;33.19;101614.28;5058736;28;46340;-84
2023/06/01 13:45:37;;;;;;;;;12.00;11.00;;;;;33.40;33.02;101588.34;5039622;28;45534;-83
2023/06/01 13:48:04;;;;;;;;;9.00;9.00;;;;;33.22;32.44;101544.13;5040758;28;45365;-84
2023/06/01 13:51:05;;;;;;;;;8.67;8.67;;;;;33.55;34.10;101593.69;5033560;28;45516;-83
2023/06/01 13:53:44;;;;;;;;;10.00;9.33;;;;;33.62;33.39;101582.78;5031376;28;45868;-83